sensor_id;sensor_type;location;lat;lon;timestamp;P1;durP1;ratioP1;P2;durP2;ratioP2
45254;SDS011;30989;52.078;21.014;2024-01-30T00:01:39;40.08;;;16.38;;
45254;SDS011;30989;52.078;21.014;2024-01-30T00:04:04;42.38;;;16.90;;
45254;SDS011;30989;52.078;21.014;2024-01-30T00:06:30;44.50;;;16.92;;
45254;SDS011;30989;52.078;21.014;2024-01-30T00:08:56;46.60;;;17.08;;
45254;SDS011;30989;52.078;21.014;2024-01-30T00:11:22;47.92;;;17.67;;
45254;SDS011;30989;52.078;21.014;2024-01-30T00:13:47;45.47;;;16.85;;
45254;SDS011;30989;52.078;21.014;2024-01-30T00:16:22;41.25;;;16.02;;
45254;SDS011;30989;52.078;21.014;2024-01-30T00:18:51;43.03;;;17.77;;
45254;SDS011;30989;52.078;21.014;2024-01-30T00:21:17;38.13;;;16.67;;
45254;SDS011;30989;52.078;21.014;2024-01-30T00:23:43;48.38;;;16.88;;
45254;SDS011;30989;52.078;21.014;2024-01-30T00:26:09;43.17;;;16.55;;
45254;SDS011;30989;52.078;21.014;2024-01-30T00:28:35;40.78;;;16.30;;
45254;SDS011;30989;52.078;21.014;2024-01-30T00:31:00;42.40;;;15.75;;
45254;SDS011;30989;52.078;21.014;2024-01-30T00:33:26;41.10;;;15.93;;
45254;SDS011;30989;52.078;21.014;2024-01-30T00:35:51;48.28;;;17.42;;
45254;SDS011;30989;52.078;21.014;2024-01-30T00:38:17;40.90;;;15.50;;
45254;SDS011;30989;52.078;21.014;2024-01-30T00:40:42;36.70;;;14.95;;
45254;SDS011;30989;52.078;21.014;2024-01-30T00:43:11;40.70;;;16.17;;
45254;SDS011;30989;52.078;21.014;2024-01-30T00:45:36;50.67;;;17.73;;
45254;SDS011;30989;52.078;21.014;2024-01-30T00:48:02;39.38;;;16.17;;
45254;SDS011;30989;52.078;21.014;2024-01-30T00:50:27;38.08;;;15.93;;
45254;SDS011;30989;52.078;21.014;2024-01-30T00:52:53;40.78;;;15.88;;
45254;SDS011;30989;52.078;21.014;2024-01-30T00:55:18;40.28;;;15.35;;
45254;SDS011;30989;52.078;21.014;2024-01-30T00:57:44;44.00;;;15.45;;
45254;SDS011;30989;52.078;21.014;2024-01-30T01:00:10;44.90;;;16.50;;
45254;SDS011;30989;52.078;21.014;2024-01-30T01:02:35;43.53;;;16.35;;
45254;SDS011;30989;52.078;21.014;2024-01-30T01:05:01;36.70;;;14.88;;
45254;SDS011;30989;52.078;21.014;2024-01-30T01:07:27;32.85;;;14.13;;
45254;SDS011;30989;52.078;21.014;2024-01-30T01:09:53;35.22;;;14.90;;
45254;SDS011;30989;52.078;21.014;2024-01-30T01:12:18;36.85;;;14.80;;
45254;SDS011;30989;52.078;21.014;2024-01-30T01:14:44;35.28;;;14.98;;
45254;SDS011;30989;52.078;21.014;2024-01-30T01:17:12;34.58;;;15.45;;
45254;SDS011;30989;52.078;21.014;2024-01-30T01:19:38;38.22;;;14.43;;
45254;SDS011;30989;52.078;21.014;2024-01-30T01:22:03;37.80;;;14.85;;
45254;SDS011;30989;52.078;21.014;2024-01-30T01:24:30;39.05;;;15.50;;
45254;SDS011;30989;52.078;21.014;2024-01-30T01:26:57;35.45;;;15.40;;
45254;SDS011;30989;52.078;21.014;2024-01-30T01:29:23;45.55;;;15.98;;
45254;SDS011;30989;52.078;21.014;2024-01-30T01:31:54;36.30;;;14.30;;
45254;SDS011;30989;52.078;21.014;2024-01-30T01:34:22;33.78;;;13.80;;
45254;SDS011;30989;52.078;21.014;2024-01-30T01:36:51;33.63;;;14.15;;
45254;SDS011;30989;52.078;21.014;2024-01-30T01:39:19;37.15;;;16.25;;
45254;SDS011;30989;52.078;21.014;2024-01-30T01:41:44;39.47;;;14.90;;
45254;SDS011;30989;52.078;21.014;2024-01-30T01:44:10;40.25;;;15.88;;
45254;SDS011;30989;52.078;21.014;2024-01-30T01:46:35;41.80;;;15.40;;
45254;SDS011;30989;52.078;21.014;2024-01-30T01:49:02;37.70;;;15.15;;
45254;SDS011;30989;52.078;21.014;2024-01-30T01:51:31;36.83;;;14.00;;
45254;SDS011;30989;52.078;21.014;2024-01-30T01:53:58;45.97;;;16.65;;
45254;SDS011;30989;52.078;21.014;2024-01-30T01:56:27;37.30;;;14.77;;
45254;SDS011;30989;52.078;21.014;2024-01-30T01:58:54;44.08;;;16.33;;
45254;SDS011;30989;52.078;21.014;2024-01-30T02:01:20;39.72;;;15.63;;
45254;SDS011;30989;52.078;21.014;2024-01-30T02:03:46;42.55;;;16.60;;
45254;SDS011;30989;52.078;21.014;2024-01-30T02:06:14;43.55;;;14.77;;
45254;SDS011;30989;52.078;21.014;2024-01-30T02:08:41;41.60;;;14.30;;
45254;SDS011;30989;52.078;21.014;2024-01-30T02:11:07;43.05;;;15.60;;
45254;SDS011;30989;52.078;21.014;2024-01-30T02:13:33;45.50;;;16.33;;
45254;SDS011;30989;52.078;21.014;2024-01-30T02:15:59;38.22;;;14.75;;
45254;SDS011;30989;52.078;21.014;2024-01-30T02:18:25;39.17;;;15.55;;
45254;SDS011;30989;52.078;21.014;2024-01-30T02:20:50;39.90;;;15.93;;
45254;SDS011;30989;52.078;21.014;2024-01-30T02:23:22;37.63;;;14.90;;
45254;SDS011;30989;52.078;21.014;2024-01-30T02:25:52;42.20;;;16.13;;
45254;SDS011;30989;52.078;21.014;2024-01-30T02:28:21;44.13;;;16.27;;
45254;SDS011;30989;52.078;21.014;2024-01-30T02:30:46;35.22;;;14.77;;
45254;SDS011;30989;52.078;21.014;2024-01-30T02:33:12;37.65;;;15.80;;
45254;SDS011;30989;52.078;21.014;2024-01-30T02:35:38;38.17;;;14.50;;
45254;SDS011;30989;52.078;21.014;2024-01-30T02:38:03;43.42;;;15.65;;
45254;SDS011;30989;52.078;21.014;2024-01-30T02:40:29;39.90;;;14.25;;
45254;SDS011;30989;52.078;21.014;2024-01-30T02:42:55;36.63;;;15.30;;
45254;SDS011;30989;52.078;21.014;2024-01-30T02:45:21;37.35;;;14.43;;
45254;SDS011;30989;52.078;21.014;2024-01-30T02:47:47;41.83;;;15.43;;
45254;SDS011;30989;52.078;21.014;2024-01-30T02:50:12;34.22;;;14.40;;
45254;SDS011;30989;52.078;21.014;2024-01-30T02:52:39;40.80;;;15.27;;
45254;SDS011;30989;52.078;21.014;2024-01-30T02:55:04;35.03;;;14.68;;
45254;SDS011;30989;52.078;21.014;2024-01-30T02:57:30;39.35;;;14.15;;
45254;SDS011;30989;52.078;21.014;2024-01-30T02:59:56;35.22;;;13.80;;
45254;SDS011;30989;52.078;21.014;2024-01-30T03:02:21;39.80;;;15.00;;
45254;SDS011;30989;52.078;21.014;2024-01-30T03:04:47;37.75;;;15.73;;
45254;SDS011;30989;52.078;21.014;2024-01-30T03:07:12;43.75;;;15.18;;
45254;SDS011;30989;52.078;21.014;2024-01-30T03:09:38;40.75;;;15.15;;
45254;SDS011;30989;52.078;21.014;2024-01-30T03:12:03;35.50;;;13.80;;
45254;SDS011;30989;52.078;21.014;2024-01-30T03:14:32;36.15;;;14.30;;
45254;SDS011;30989;52.078;21.014;2024-01-30T03:16:58;40.35;;;16.90;;
45254;SDS011;30989;52.078;21.014;2024-01-30T03:19:23;31.17;;;13.10;;
45254;SDS011;30989;52.078;21.014;2024-01-30T03:21:49;34.25;;;14.20;;
45254;SDS011;30989;52.078;21.014;2024-01-30T03:24:15;36.53;;;13.95;;
45254;SDS011;30989;52.078;21.014;2024-01-30T03:26:40;51.67;;;20.90;;
45254;SDS011;30989;52.078;21.014;2024-01-30T03:29:06;38.67;;;13.55;;
45254;SDS011;30989;52.078;21.014;2024-01-30T03:31:31;34.63;;;14.02;;
45254;SDS011;30989;52.078;21.014;2024-01-30T03:33:57;32.30;;;13.45;;
45254;SDS011;30989;52.078;21.014;2024-01-30T03:36:23;38.08;;;14.48;;
45254;SDS011;30989;52.078;21.014;2024-01-30T03:38:48;38.45;;;14.43;;
45254;SDS011;30989;52.078;21.014;2024-01-30T03:41:14;32.88;;;13.00;;
45254;SDS011;30989;52.078;21.014;2024-01-30T03:43:40;38.40;;;14.35;;
45254;SDS011;30989;52.078;21.014;2024-01-30T03:46:06;36.40;;;13.75;;
45254;SDS011;30989;52.078;21.014;2024-01-30T03:48:32;46.33;;;16.40;;
45254;SDS011;30989;52.078;21.014;2024-01-30T03:50:57;34.55;;;14.98;;
45254;SDS011;30989;52.078;21.014;2024-01-30T03:53:23;35.75;;;13.80;;
45254;SDS011;30989;52.078;21.014;2024-01-30T03:55:48;34.65;;;14.85;;
45254;SDS011;30989;52.078;21.014;2024-01-30T03:58:14;37.38;;;14.82;;
45254;SDS011;30989;52.078;21.014;2024-01-30T04:00:39;32.90;;;14.27;;
45254;SDS011;30989;52.078;21.014;2024-01-30T04:03:06;39.13;;;15.95;;
45254;SDS011;30989;52.078;21.014;2024-01-30T04:05:31;40.90;;;14.43;;
45254;SDS011;30989;52.078;21.014;2024-01-30T04:07:57;37.90;;;15.40;;
45254;SDS011;30989;52.078;21.014;2024-01-30T04:10:23;37.20;;;12.95;;
45254;SDS011;30989;52.078;21.014;2024-01-30T04:12:49;40.97;;;15.27;;
45254;SDS011;30989;52.078;21.014;2024-01-30T04:15:16;35.10;;;14.57;;
45254;SDS011;30989;52.078;21.014;2024-01-30T04:17:42;35.88;;;13.95;;
45254;SDS011;30989;52.078;21.014;2024-01-30T04:20:11;35.90;;;14.23;;
45254;SDS011;30989;52.078;21.014;2024-01-30T04:22:38;37.72;;;15.25;;
45254;SDS011;30989;52.078;21.014;2024-01-30T04:25:04;38.58;;;15.05;;
45254;SDS011;30989;52.078;21.014;2024-01-30T04:27:29;38.65;;;15.00;;
45254;SDS011;30989;52.078;21.014;2024-01-30T04:29:55;39.90;;;15.82;;
45254;SDS011;30989;52.078;21.014;2024-01-30T04:32:20;35.10;;;14.02;;
45254;SDS011;30989;52.078;21.014;2024-01-30T04:34:45;36.05;;;14.55;;
45254;SDS011;30989;52.078;21.014;2024-01-30T04:37:11;37.63;;;15.82;;
45254;SDS011;30989;52.078;21.014;2024-01-30T04:39:36;36.42;;;14.95;;
45254;SDS011;30989;52.078;21.014;2024-01-30T04:42:02;38.50;;;15.00;;
45254;SDS011;30989;52.078;21.014;2024-01-30T04:44:27;35.50;;;14.65;;
45254;SDS011;30989;52.078;21.014;2024-01-30T04:46:53;38.47;;;14.40;;
45254;SDS011;30989;52.078;21.014;2024-01-30T04:49:18;36.50;;;14.63;;
45254;SDS011;30989;52.078;21.014;2024-01-30T04:51:44;40.50;;;14.25;;
45254;SDS011;30989;52.078;21.014;2024-01-30T04:54:09;37.88;;;14.05;;
45254;SDS011;30989;52.078;21.014;2024-01-30T04:56:35;42.30;;;15.73;;
45254;SDS011;30989;52.078;21.014;2024-01-30T04:59:01;36.63;;;15.27;;
45254;SDS011;30989;52.078;21.014;2024-01-30T05:01:27;40.53;;;15.85;;
45254;SDS011;30989;52.078;21.014;2024-01-30T05:03:53;41.85;;;15.95;;
45254;SDS011;30989;52.078;21.014;2024-01-30T05:06:25;40.15;;;15.40;;
45254;SDS011;30989;52.078;21.014;2024-01-30T05:08:51;40.08;;;15.35;;
45254;SDS011;30989;52.078;21.014;2024-01-30T05:11:16;36.55;;;15.18;;
45254;SDS011;30989;52.078;21.014;2024-01-30T05:13:42;38.95;;;15.57;;
45254;SDS011;30989;52.078;21.014;2024-01-30T05:16:07;35.22;;;14.00;;
45254;SDS011;30989;52.078;21.014;2024-01-30T05:18:33;39.85;;;14.40;;
45254;SDS011;30989;52.078;21.014;2024-01-30T05:20:58;35.38;;;15.18;;
45254;SDS011;30989;52.078;21.014;2024-01-30T05:23:24;41.58;;;16.80;;
45254;SDS011;30989;52.078;21.014;2024-01-30T05:25:50;44.58;;;15.32;;
45254;SDS011;30989;52.078;21.014;2024-01-30T05:28:15;40.42;;;14.02;;
45254;SDS011;30989;52.078;21.014;2024-01-30T05:30:41;48.78;;;16.42;;
45254;SDS011;30989;52.078;21.014;2024-01-30T05:33:06;45.80;;;15.10;;
45254;SDS011;30989;52.078;21.014;2024-01-30T05:35:32;43.63;;;15.68;;
45254;SDS011;30989;52.078;21.014;2024-01-30T05:38:00;39.05;;;14.90;;
45254;SDS011;30989;52.078;21.014;2024-01-30T05:40:25;42.60;;;15.82;;
45254;SDS011;30989;52.078;21.014;2024-01-30T05:42:51;43.08;;;14.88;;
45254;SDS011;30989;52.078;21.014;2024-01-30T05:45:16;45.03;;;17.25;;
45254;SDS011;30989;52.078;21.014;2024-01-30T05:47:42;38.78;;;15.00;;
45254;SDS011;30989;52.078;21.014;2024-01-30T05:50:07;40.75;;;15.48;;
45254;SDS011;30989;52.078;21.014;2024-01-30T05:52:33;31.95;;;13.95;;
45254;SDS011;30989;52.078;21.014;2024-01-30T05:54:58;37.58;;;14.52;;
45254;SDS011;30989;52.078;21.014;2024-01-30T05:57:24;40.67;;;15.85;;
45254;SDS011;30989;52.078;21.014;2024-01-30T05:59:49;36.38;;;15.20;;
45254;SDS011;30989;52.078;21.014;2024-01-30T06:02:17;37.40;;;14.68;;
45254;SDS011;30989;52.078;21.014;2024-01-30T06:04:42;37.60;;;14.00;;
45254;SDS011;30989;52.078;21.014;2024-01-30T06:07:07;44.05;;;15.85;;
45254;SDS011;30989;52.078;21.014;2024-01-30T06:09:33;39.25;;;15.68;;
45254;SDS011;30989;52.078;21.014;2024-01-30T06:11:58;36.17;;;14.52;;
45254;SDS011;30989;52.078;21.014;2024-01-30T06:14:24;38.78;;;15.13;;
45254;SDS011;30989;52.078;21.014;2024-01-30T06:16:49;42.88;;;15.30;;
45254;SDS011;30989;52.078;21.014;2024-01-30T06:19:15;41.13;;;14.57;;
45254;SDS011;30989;52.078;21.014;2024-01-30T06:21:40;54.15;;;18.08;;
45254;SDS011;30989;52.078;21.014;2024-01-30T06:24:06;34.90;;;14.25;;
45254;SDS011;30989;52.078;21.014;2024-01-30T06:26:31;37.10;;;14.68;;
45254;SDS011;30989;52.078;21.014;2024-01-30T06:28:57;35.75;;;14.20;;
45254;SDS011;30989;52.078;21.014;2024-01-30T06:31:22;41.75;;;16.85;;
45254;SDS011;30989;52.078;21.014;2024-01-30T06:33:48;44.08;;;16.70;;
45254;SDS011;30989;52.078;21.014;2024-01-30T06:36:14;33.17;;;14.77;;
45254;SDS011;30989;52.078;21.014;2024-01-30T06:38:40;34.97;;;12.73;;
45254;SDS011;30989;52.078;21.014;2024-01-30T06:41:06;39.47;;;15.18;;
45254;SDS011;30989;52.078;21.014;2024-01-30T06:43:31;37.50;;;14.18;;
45254;SDS011;30989;52.078;21.014;2024-01-30T06:45:56;36.22;;;13.27;;
45254;SDS011;30989;52.078;21.014;2024-01-30T06:48:22;35.20;;;13.25;;
45254;SDS011;30989;52.078;21.014;2024-01-30T06:50:47;37.85;;;13.85;;
45254;SDS011;30989;52.078;21.014;2024-01-30T06:53:14;33.22;;;12.82;;
45254;SDS011;30989;52.078;21.014;2024-01-30T06:55:40;38.80;;;14.40;;
45254;SDS011;30989;52.078;21.014;2024-01-30T06:58:05;38.65;;;14.38;;
45254;SDS011;30989;52.078;21.014;2024-01-30T07:00:31;37.42;;;14.88;;
45254;SDS011;30989;52.078;21.014;2024-01-30T07:02:56;30.77;;;13.88;;
45254;SDS011;30989;52.078;21.014;2024-01-30T07:05:21;30.95;;;12.50;;
45254;SDS011;30989;52.078;21.014;2024-01-30T07:07:48;33.70;;;13.30;;
45254;SDS011;30989;52.078;21.014;2024-01-30T07:10:14;42.67;;;14.75;;
45254;SDS011;30989;52.078;21.014;2024-01-30T07:12:39;39.63;;;14.77;;
45254;SDS011;30989;52.078;21.014;2024-01-30T07:15:05;40.67;;;14.80;;
45254;SDS011;30989;52.078;21.014;2024-01-30T07:17:34;36.08;;;14.60;;
45254;SDS011;30989;52.078;21.014;2024-01-30T07:20:00;39.13;;;14.85;;
45254;SDS011;30989;52.078;21.014;2024-01-30T07:22:26;32.05;;;13.10;;
45254;SDS011;30989;52.078;21.014;2024-01-30T07:24:51;34.65;;;13.57;;
45254;SDS011;30989;52.078;21.014;2024-01-30T07:27:17;30.80;;;13.23;;
45254;SDS011;30989;52.078;21.014;2024-01-30T07:29:43;38.72;;;14.57;;
45254;SDS011;30989;52.078;21.014;2024-01-30T07:32:08;42.00;;;15.43;;
45254;SDS011;30989;52.078;21.014;2024-01-30T07:34:34;48.38;;;17.77;;
45254;SDS011;30989;52.078;21.014;2024-01-30T07:36:59;45.80;;;17.05;;
45254;SDS011;30989;52.078;21.014;2024-01-30T07:39:25;39.22;;;15.15;;
45254;SDS011;30989;52.078;21.014;2024-01-30T07:41:51;36.38;;;14.77;;
45254;SDS011;30989;52.078;21.014;2024-01-30T07:44:16;34.50;;;15.23;;
45254;SDS011;30989;52.078;21.014;2024-01-30T07:46:42;33.95;;;13.23;;
45254;SDS011;30989;52.078;21.014;2024-01-30T07:49:07;39.75;;;14.63;;
45254;SDS011;30989;52.078;21.014;2024-01-30T07:51:33;42.38;;;14.27;;
45254;SDS011;30989;52.078;21.014;2024-01-30T07:53:58;33.88;;;13.35;;
45254;SDS011;30989;52.078;21.014;2024-01-30T07:56:24;37.90;;;13.93;;
45254;SDS011;30989;52.078;21.014;2024-01-30T07:58:49;36.53;;;13.18;;
45254;SDS011;30989;52.078;21.014;2024-01-30T08:01:15;37.53;;;13.60;;
45254;SDS011;30989;52.078;21.014;2024-01-30T08:03:41;38.78;;;14.50;;
45254;SDS011;30989;52.078;21.014;2024-01-30T08:06:06;36.35;;;13.45;;
45254;SDS011;30989;52.078;21.014;2024-01-30T08:08:32;31.02;;;11.95;;
45254;SDS011;30989;52.078;21.014;2024-01-30T08:10:57;36.95;;;13.35;;
45254;SDS011;30989;52.078;21.014;2024-01-30T08:13:23;35.08;;;14.05;;
45254;SDS011;30989;52.078;21.014;2024-01-30T08:15:48;31.70;;;12.68;;
45254;SDS011;30989;52.078;21.014;2024-01-30T08:18:14;33.60;;;12.77;;
45254;SDS011;30989;52.078;21.014;2024-01-30T08:20:39;35.03;;;14.43;;
45254;SDS011;30989;52.078;21.014;2024-01-30T08:23:04;31.55;;;13.40;;
45254;SDS011;30989;52.078;21.014;2024-01-30T08:25:30;34.78;;;13.85;;
45254;SDS011;30989;52.078;21.014;2024-01-30T08:27:55;35.17;;;14.05;;
45254;SDS011;30989;52.078;21.014;2024-01-30T08:30:22;32.40;;;14.43;;
45254;SDS011;30989;52.078;21.014;2024-01-30T08:32:47;37.70;;;12.80;;
45254;SDS011;30989;52.078;21.014;2024-01-30T08:35:13;42.28;;;13.82;;
45254;SDS011;30989;52.078;21.014;2024-01-30T08:37:40;42.30;;;12.75;;
45254;SDS011;30989;52.078;21.014;2024-01-30T08:40:06;34.92;;;12.98;;
45254;SDS011;30989;52.078;21.014;2024-01-30T08:42:33;35.97;;;13.55;;
45254;SDS011;30989;52.078;21.014;2024-01-30T08:44:59;35.67;;;12.35;;
45254;SDS011;30989;52.078;21.014;2024-01-30T08:47:24;38.15;;;13.63;;
45254;SDS011;30989;52.078;21.014;2024-01-30T08:49:50;33.35;;;11.98;;
45254;SDS011;30989;52.078;21.014;2024-01-30T08:52:16;33.63;;;12.85;;
45254;SDS011;30989;52.078;21.014;2024-01-30T08:54:42;29.60;;;12.80;;
45254;SDS011;30989;52.078;21.014;2024-01-30T08:57:07;38.08;;;11.82;;
45254;SDS011;30989;52.078;21.014;2024-01-30T08:59:33;31.67;;;12.13;;
45254;SDS011;30989;52.078;21.014;2024-01-30T09:02:02;33.17;;;12.60;;
45254;SDS011;30989;52.078;21.014;2024-01-30T09:04:28;38.72;;;11.73;;
45254;SDS011;30989;52.078;21.014;2024-01-30T09:06:54;29.73;;;12.43;;
45254;SDS011;30989;52.078;21.014;2024-01-30T09:09:20;29.52;;;12.50;;
45254;SDS011;30989;52.078;21.014;2024-01-30T09:11:45;29.73;;;11.25;;
45254;SDS011;30989;52.078;21.014;2024-01-30T09:14:11;33.75;;;12.13;;
45254;SDS011;30989;52.078;21.014;2024-01-30T09:16:37;24.65;;;11.65;;
45254;SDS011;30989;52.078;21.014;2024-01-30T09:19:02;23.65;;;10.95;;
45254;SDS011;30989;52.078;21.014;2024-01-30T09:21:28;25.08;;;11.55;;
45254;SDS011;30989;52.078;21.014;2024-01-30T09:24:01;27.58;;;11.13;;
45254;SDS011;30989;52.078;21.014;2024-01-30T09:26:30;23.33;;;10.10;;
45254;SDS011;30989;52.078;21.014;2024-01-30T09:28:56;28.50;;;11.38;;
45254;SDS011;30989;52.078;21.014;2024-01-30T09:31:21;25.02;;;9.73;;
45254;SDS011;30989;52.078;21.014;2024-01-30T09:33:47;26.58;;;10.65;;
45254;SDS011;30989;52.078;21.014;2024-01-30T09:36:13;25.33;;;10.48;;
45254;SDS011;30989;52.078;21.014;2024-01-30T09:38:40;24.27;;;10.00;;
45254;SDS011;30989;52.078;21.014;2024-01-30T09:41:07;26.67;;;10.35;;
45254;SDS011;30989;52.078;21.014;2024-01-30T09:43:36;31.13;;;11.02;;
45254;SDS011;30989;52.078;21.014;2024-01-30T09:46:03;23.80;;;10.43;;
45254;SDS011;30989;52.078;21.014;2024-01-30T09:48:31;28.02;;;9.85;;
45254;SDS011;30989;52.078;21.014;2024-01-30T09:50:58;33.20;;;10.18;;
45254;SDS011;30989;52.078;21.014;2024-01-30T09:53:24;30.02;;;11.52;;
45254;SDS011;30989;52.078;21.014;2024-01-30T09:55:50;23.23;;;10.85;;
45254;SDS011;30989;52.078;21.014;2024-01-30T09:58:16;24.42;;;10.15;;
45254;SDS011;30989;52.078;21.014;2024-01-30T10:00:42;25.77;;;9.68;;
45254;SDS011;30989;52.078;21.014;2024-01-30T10:03:08;29.00;;;10.73;;
45254;SDS011;30989;52.078;21.014;2024-01-30T10:05:34;28.67;;;10.50;;
45254;SDS011;30989;52.078;21.014;2024-01-30T10:08:05;30.80;;;11.02;;
45254;SDS011;30989;52.078;21.014;2024-01-30T10:10:33;33.08;;;11.32;;
45254;SDS011;30989;52.078;21.014;2024-01-30T10:13:00;24.80;;;10.48;;
45254;SDS011;30989;52.078;21.014;2024-01-30T10:15:25;21.80;;;9.85;;
45254;SDS011;30989;52.078;21.014;2024-01-30T10:17:53;26.65;;;10.25;;
45254;SDS011;30989;52.078;21.014;2024-01-30T10:20:19;28.23;;;10.57;;
45254;SDS011;30989;52.078;21.014;2024-01-30T10:22:44;30.60;;;11.57;;
45254;SDS011;30989;52.078;21.014;2024-01-30T10:25:11;27.92;;;10.45;;
45254;SDS011;30989;52.078;21.014;2024-01-30T10:27:36;26.33;;;9.40;;
45254;SDS011;30989;52.078;21.014;2024-01-30T10:30:02;32.15;;;10.45;;
45254;SDS011;30989;52.078;21.014;2024-01-30T10:32:29;25.08;;;9.40;;
45254;SDS011;30989;52.078;21.014;2024-01-30T10:34:54;26.52;;;10.10;;
45254;SDS011;30989;52.078;21.014;2024-01-30T10:37:20;27.77;;;9.77;;
45254;SDS011;30989;52.078;21.014;2024-01-30T10:39:50;25.23;;;10.38;;
45254;SDS011;30989;52.078;21.014;2024-01-30T10:42:18;25.95;;;9.95;;
45254;SDS011;30989;52.078;21.014;2024-01-30T10:47:25;25.77;;;10.63;;
45254;SDS011;30989;52.078;21.014;2024-01-30T10:49:52;29.05;;;12.00;;
45254;SDS011;30989;52.078;21.014;2024-01-30T10:52:19;25.25;;;11.40;;
45254;SDS011;30989;52.078;21.014;2024-01-30T10:54:45;23.10;;;10.55;;
45254;SDS011;30989;52.078;21.014;2024-01-30T10:57:12;24.67;;;9.88;;
45254;SDS011;30989;52.078;21.014;2024-01-30T10:59:40;22.95;;;10.90;;
45254;SDS011;30989;52.078;21.014;2024-01-30T11:02:07;22.70;;;11.30;;
45254;SDS011;30989;52.078;21.014;2024-01-30T11:04:36;22.98;;;10.55;;
45254;SDS011;30989;52.078;21.014;2024-01-30T11:07:02;25.40;;;10.52;;
45254;SDS011;30989;52.078;21.014;2024-01-30T11:09:29;23.95;;;11.18;;
45254;SDS011;30989;52.078;21.014;2024-01-30T11:11:58;22.02;;;10.85;;
45254;SDS011;30989;52.078;21.014;2024-01-30T11:16:56;23.23;;;9.68;;
45254;SDS011;30989;52.078;21.014;2024-01-30T11:19:23;20.52;;;9.40;;
45254;SDS011;30989;52.078;21.014;2024-01-30T11:21:51;24.52;;;9.73;;
45254;SDS011;30989;52.078;21.014;2024-01-30T11:24:22;22.25;;;10.50;;
45254;SDS011;30989;52.078;21.014;2024-01-30T11:26:55;23.35;;;10.35;;
45254;SDS011;30989;52.078;21.014;2024-01-30T11:29:25;22.15;;;10.27;;
45254;SDS011;30989;52.078;21.014;2024-01-30T11:31:55;24.02;;;10.85;;
45254;SDS011;30989;52.078;21.014;2024-01-30T11:34:22;18.85;;;9.63;;
45254;SDS011;30989;52.078;21.014;2024-01-30T11:36:51;25.70;;;11.85;;
45254;SDS011;30989;52.078;21.014;2024-01-30T11:39:23;23.55;;;10.63;;
45254;SDS011;30989;52.078;21.014;2024-01-30T11:41:50;22.73;;;10.55;;
45254;SDS011;30989;52.078;21.014;2024-01-30T11:44:17;19.00;;;10.18;;
45254;SDS011;30989;52.078;21.014;2024-01-30T11:46:42;19.48;;;9.68;;
45254;SDS011;30989;52.078;21.014;2024-01-30T11:49:08;19.65;;;9.50;;
45254;SDS011;30989;52.078;21.014;2024-01-30T11:51:33;23.35;;;9.90;;
45254;SDS011;30989;52.078;21.014;2024-01-30T11:53:59;18.67;;;9.70;;
45254;SDS011;30989;52.078;21.014;2024-01-30T11:56:24;21.33;;;10.00;;
45254;SDS011;30989;52.078;21.014;2024-01-30T11:58:51;15.60;;;9.18;;
45254;SDS011;30989;52.078;21.014;2024-01-30T12:01:17;20.77;;;9.23;;
45254;SDS011;30989;52.078;21.014;2024-01-30T12:03:48;18.88;;;9.15;;
45254;SDS011;30989;52.078;21.014;2024-01-30T12:06:15;18.27;;;8.75;;
45254;SDS011;30989;52.078;21.014;2024-01-30T12:08:41;22.92;;;9.10;;
45254;SDS011;30989;52.078;21.014;2024-01-30T12:11:07;21.75;;;9.23;;
45254;SDS011;30989;52.078;21.014;2024-01-30T12:13:32;21.02;;;9.45;;
45254;SDS011;30989;52.078;21.014;2024-01-30T12:15:58;19.85;;;8.93;;
45254;SDS011;30989;52.078;21.014;2024-01-30T12:18:27;17.63;;;8.95;;
45254;SDS011;30989;52.078;21.014;2024-01-30T12:20:59;17.45;;;8.73;;
45254;SDS011;30989;52.078;21.014;2024-01-30T12:23:25;22.10;;;9.73;;
45254;SDS011;30989;52.078;21.014;2024-01-30T12:25:52;17.27;;;8.70;;
45254;SDS011;30989;52.078;21.014;2024-01-30T12:28:17;16.17;;;8.50;;
45254;SDS011;30989;52.078;21.014;2024-01-30T12:30:43;22.45;;;10.02;;
45254;SDS011;30989;52.078;21.014;2024-01-30T12:33:08;16.98;;;7.90;;
45254;SDS011;30989;52.078;21.014;2024-01-30T12:35:35;22.23;;;8.77;;
45254;SDS011;30989;52.078;21.014;2024-01-30T12:38:02;17.25;;;8.68;;
45254;SDS011;30989;52.078;21.014;2024-01-30T12:40:27;21.20;;;8.73;;
45254;SDS011;30989;52.078;21.014;2024-01-30T12:42:53;19.50;;;8.40;;
45254;SDS011;30989;52.078;21.014;2024-01-30T12:45:19;18.23;;;8.23;;
45254;SDS011;30989;52.078;21.014;2024-01-30T12:47:46;20.63;;;8.95;;
45254;SDS011;30989;52.078;21.014;2024-01-30T12:50:12;16.25;;;7.60;;
45254;SDS011;30989;52.078;21.014;2024-01-30T12:52:40;18.95;;;7.88;;
45254;SDS011;30989;52.078;21.014;2024-01-30T12:55:06;17.00;;;7.75;;
45254;SDS011;30989;52.078;21.014;2024-01-30T12:57:32;18.65;;;8.45;;
45254;SDS011;30989;52.078;21.014;2024-01-30T12:59:57;20.00;;;8.70;;
45254;SDS011;30989;52.078;21.014;2024-01-30T13:02:23;16.27;;;7.80;;
45254;SDS011;30989;52.078;21.014;2024-01-30T13:04:48;17.80;;;8.68;;
45254;SDS011;30989;52.078;21.014;2024-01-30T13:07:14;22.17;;;8.68;;
45254;SDS011;30989;52.078;21.014;2024-01-30T13:09:39;23.35;;;9.57;;
45254;SDS011;30989;52.078;21.014;2024-01-30T13:12:05;22.05;;;9.60;;
45254;SDS011;30989;52.078;21.014;2024-01-30T13:14:32;22.48;;;8.88;;
45254;SDS011;30989;52.078;21.014;2024-01-30T13:16:57;19.67;;;8.48;;
45254;SDS011;30989;52.078;21.014;2024-01-30T13:19:23;22.02;;;9.18;;
45254;SDS011;30989;52.078;21.014;2024-01-30T13:21:48;20.88;;;8.80;;
45254;SDS011;30989;52.078;21.014;2024-01-30T13:24:14;18.77;;;8.60;;
45254;SDS011;30989;52.078;21.014;2024-01-30T13:26:39;19.00;;;8.57;;
45254;SDS011;30989;52.078;21.014;2024-01-30T13:29:07;20.08;;;8.27;;
45254;SDS011;30989;52.078;21.014;2024-01-30T13:31:33;25.77;;;9.77;;
45254;SDS011;30989;52.078;21.014;2024-01-30T13:33:59;22.33;;;8.65;;
45254;SDS011;30989;52.078;21.014;2024-01-30T13:36:25;25.98;;;9.75;;
45254;SDS011;30989;52.078;21.014;2024-01-30T13:38:50;30.48;;;9.52;;
45254;SDS011;30989;52.078;21.014;2024-01-30T13:41:16;23.60;;;9.02;;
45254;SDS011;30989;52.078;21.014;2024-01-30T13:43:43;27.42;;;9.20;;
45254;SDS011;30989;52.078;21.014;2024-01-30T13:46:08;16.88;;;8.80;;
45254;SDS011;30989;52.078;21.014;2024-01-30T13:48:34;21.38;;;8.23;;
45254;SDS011;30989;52.078;21.014;2024-01-30T13:50:59;26.10;;;10.82;;
45254;SDS011;30989;52.078;21.014;2024-01-30T13:53:25;27.50;;;10.88;;
45254;SDS011;30989;52.078;21.014;2024-01-30T13:55:51;29.17;;;9.82;;
45254;SDS011;30989;52.078;21.014;2024-01-30T13:58:17;29.30;;;9.82;;
45254;SDS011;30989;52.078;21.014;2024-01-30T14:00:42;20.70;;;8.90;;
45254;SDS011;30989;52.078;21.014;2024-01-30T14:03:08;21.08;;;9.25;;
45254;SDS011;30989;52.078;21.014;2024-01-30T14:05:33;23.63;;;9.88;;
45254;SDS011;30989;52.078;21.014;2024-01-30T14:08:00;26.17;;;9.60;;
45254;SDS011;30989;52.078;21.014;2024-01-30T14:10:25;67.18;;;23.88;;